Time;durP1;ratioP1;P1;durP2;ratioP2;P2;SDS_P1;SDS_P2;PMS_P1;PMS_P2;Temp;Humidity;BMP_temperature;BMP_pressure;BME280_temperature;BME280_humidity;BME280_pressure;Samples;Min_cycle;Max_cycle;Signal;HPM_P1;HPM_P2
2021/06/21 00:00:40;;;;;;;4.47;3.95;;;23.30;99.90;;;;;;2096317;28;20029;-68
2021/06/21 00:01:40;;;;;;;3.95;3.55;;;23.30;99.90;;;;;;2095586;28;20129;-68
2021/06/21 00:02:42;;;;;;;4.03;3.65;;;23.20;99.90;;;;;;2095926;28;20020;-69
2021/06/21 00:03:43;;;;;;;4.05;3.65;;;23.20;99.90;;;;;;2095801;28;20481;-68
2021/06/21 00:04:43;;;;;;;4.43;3.70;;;23.20;99.90;;;;;;2095991;28;20434;-68
2021/06/21 00:05:44;;;;;;;4.53;4.13;;;23.20;99.90;;;;;;2095490;28;20047;-68
2021/06/21 00:06:44;;;;;;;3.80;3.40;;;23.20;99.90;;;;;;2095273;28;20017;-68
2021/06/21 00:07:46;;;;;;;3.40;3.10;;;23.20;99.90;;;;;;2097226;28;20025;-68
2021/06/21 00:08:46;;;;;;;4.82;3.97;;;23.20;99.90;;;;;;2104566;28;20317;-69
2021/06/21 00:09:47;;;;;;;4.38;3.28;;;23.20;99.90;;;;;;2100041;28;20104;-69
2021/06/21 00:10:48;;;;;;;5.70;4.95;;;23.10;99.90;;;;;;2095902;28;20029;-69
2021/06/21 00:11:48;;;;;;;9.93;5.47;;;23.10;99.90;;;;;;2095569;28;20036;-70
2021/06/21 00:12:49;;;;;;;8.23;4.93;;;23.10;99.90;;;;;;2096108;28;20028;-70
2021/06/21 00:13:50;;;;;;;5.35;4.85;;;23.10;99.90;;;;;;2096259;28;20470;-70
2021/06/21 00:14:51;;;;;;;4.45;4.03;;;23.10;99.90;;;;;;2095985;28;20078;-70
2021/06/21 00:15:52;;;;;;;4.72;3.60;;;23.10;99.90;;;;;;2096276;28;20027;-70
2021/06/21 00:16:52;;;;;;;5.00;4.50;;;23.10;99.90;;;;;;2095853;28;20411;-70
2021/06/21 00:17:54;;;;;;;4.35;3.95;;;23.00;99.90;;;;;;2099903;28;20032;-69
2021/06/21 00:18:54;;;;;;;4.45;4.05;;;23.00;99.90;;;;;;2101415;28;20027;-69
2021/06/21 00:19:55;;;;;;;5.72;4.50;;;23.00;99.90;;;;;;2096306;28;20044;-69
2021/06/21 00:20:56;;;;;;;5.60;5.10;;;23.00;99.90;;;;;;2096009;28;20037;-69
2021/06/21 00:21:57;;;;;;;4.82;4.32;;;23.00;99.90;;;;;;2095340;28;20028;-69
2021/06/21 00:22:57;;;;;;;3.70;3.40;;;23.00;99.90;;;;;;2096285;28;20024;-69
2021/06/21 00:23:58;;;;;;;5.55;4.10;;;23.00;99.90;;;;;;2095880;28;20051;-69
2021/06/21 00:24:58;;;;;;;4.68;4.13;;;23.00;99.90;;;;;;2096248;28;20528;-69
2021/06/21 00:25:59;;;;;;;6.78;5.13;;;23.00;99.90;;;;;;2095697;28;20514;-70
2021/06/21 00:27:00;;;;;;;4.78;4.10;;;23.00;99.90;;;;;;2096382;28;20090;-70
2021/06/21 00:28:00;;;;;;;7.43;3.90;;;23.00;99.90;;;;;;2095127;28;20594;-70
2021/06/21 00:29:01;;;;;;;9.07;6.55;;;23.00;99.90;;;;;;2087360;28;20140;-70
2021/06/21 00:30:05;;;;;;;6.07;4.70;;;23.00;99.90;;;;;;2095530;28;20532;-70
2021/06/21 00:31:06;;;;;;;6.05;5.53;;;23.00;99.90;;;;;;2094296;28;20034;-70
2021/06/21 00:32:07;;;;;;;5.88;5.28;;;22.90;99.90;;;;;;2093827;28;20120;-70
2021/06/21 00:33:08;;;;;;;8.43;5.72;;;22.90;99.90;;;;;;2087903;28;20113;-69
2021/06/21 00:34:09;;;;;;;7.43;5.97;;;22.90;99.90;;;;;;2097603;28;20031;-70
2021/06/21 00:35:10;;;;;;;6.40;5.88;;;22.90;99.90;;;;;;2104509;28;20024;-70
2021/06/21 00:36:11;;;;;;;10.20;5.75;;;22.90;99.90;;;;;;2104189;28;20035;-69
2021/06/21 00:37:12;;;;;;;6.30;5.70;;;22.80;99.90;;;;;;2105170;28;20028;-70
2021/06/21 00:38:12;;;;;;;5.80;4.28;;;22.80;99.90;;;;;;2106324;28;20027;-70
2021/06/21 00:39:13;;;;;;;6.63;6.03;;;22.80;99.90;;;;;;2106058;28;20028;-70
2021/06/21 00:40:15;;;;;;;6.28;5.55;;;22.80;99.90;;;;;;2105168;28;20074;-69
2021/06/21 00:41:15;;;;;;;5.97;5.50;;;22.70;99.90;;;;;;2105602;28;20028;-70
2021/06/21 00:42:16;;;;;;;6.80;6.10;;;22.70;99.90;;;;;;2105149;28;20478;-69
2021/06/21 00:43:16;;;;;;;6.90;6.28;;;22.70;99.90;;;;;;2106266;28;20028;-69
2021/06/21 00:44:17;;;;;;;6.93;5.38;;;22.70;99.90;;;;;;2104222;28;20390;-69
2021/06/21 00:45:20;;;;;;;6.50;5.90;;;22.70;99.90;;;;;;2097810;28;20108;-69
2021/06/21 00:46:21;;;;;;;5.78;5.28;;;22.70;99.90;;;;;;2097174;28;20024;-69
2021/06/21 00:47:21;;;;;;;6.45;5.95;;;22.70;99.90;;;;;;2104404;28;20024;-69
2021/06/21 00:48:22;;;;;;;7.18;6.55;;;22.60;99.90;;;;;;2102672;28;20031;-69
2021/06/21 00:49:22;;;;;;;6.82;6.15;;;22.60;99.90;;;;;;2097693;28;20025;-70
2021/06/21 00:50:26;;;;;;;4.85;4.45;;;22.60;99.90;;;;;;2097810;28;20028;-70
2021/06/21 00:51:27;;;;;;;6.40;5.90;;;22.60;99.90;;;;;;2097708;28;20036;-69
2021/06/21 00:52:28;;;;;;;5.65;5.15;;;22.50;99.90;;;;;;2097021;28;20024;-70
2021/06/21 00:53:28;;;;;;;7.35;6.05;;;22.50;99.90;;;;;;2097683;28;20035;-70
2021/06/21 00:54:29;;;;;;;8.55;6.78;;;22.50;99.90;;;;;;2097453;28;20383;-70
2021/06/21 00:55:30;;;;;;;7.30;6.57;;;22.50;99.90;;;;;;2097596;28;20024;-70
2021/06/21 00:56:31;;;;;;;6.45;5.90;;;22.50;99.90;;;;;;2097889;28;20119;-70
2021/06/21 00:57:34;;;;;;;7.63;6.38;;;22.50;99.90;;;;;;2097581;28;20134;-70
2021/06/21 00:58:35;;;;;;;5.78;5.28;;;22.40;99.90;;;;;;2097438;28;20065;-70
2021/06/21 00:59:36;;;;;;;6.90;6.07;;;22.40;99.90;;;;;;2097536;28;20020;-70
2021/06/21 01:00:36;;;;;;;6.65;6.03;;;22.40;99.90;;;;;;2097522;28;20024;-70
2021/06/21 01:01:37;;;;;;;7.63;5.72;;;22.40;99.90;;;;;;2097020;28;20028;-70
2021/06/21 01:02:38;;;;;;;6.80;6.20;;;22.30;99.90;;;;;;2097325;28;20025;-70
2021/06/21 01:03:39;;;;;;;6.15;5.55;;;22.30;99.90;;;;;;2097259;28;20063;-70
2021/06/21 01:04:39;;;;;;;5.75;5.20;;;22.30;99.90;;;;;;2097383;28;20046;-70
2021/06/21 01:05:40;;;;;;;6.32;5.57;;;22.30;99.90;;;;;;2097196;28;20054;-70
2021/06/21 01:06:40;;;;;;;6.78;5.75;;;22.20;99.90;;;;;;2097407;28;20017;-70
2021/06/21 01:07:41;;;;;;;5.50;5.00;;;22.20;99.90;;;;;;2097566;28;20070;-70
2021/06/21 01:08:41;;;;;;;5.72;5.28;;;22.20;99.90;;;;;;2097547;28;20044;-70
2021/06/21 01:09:42;;;;;;;6.50;5.75;;;22.20;99.90;;;;;;2097464;28;20027;-70
2021/06/21 01:10:47;;;;;;;6.68;6.05;;;22.20;99.90;;;;;;2097876;28;20471;-70
2021/06/21 01:12:02;;;;;;;5.65;5.15;;;22.20;99.90;;;;;;2096924;28;20051;-70
2021/06/21 01:13:15;;;;;;;5.13;4.60;;;22.10;99.90;;;;;;2097561;28;20032;-70
2021/06/21 01:14:29;;;;;;;5.68;5.07;;;22.10;99.90;;;;;;2097597;28;20028;-70
2021/06/21 01:15:38;;;;;;;6.85;5.75;;;22.10;99.90;;;;;;2097494;28;20035;-70
2021/06/21 01:16:47;;;;;;;8.63;5.60;;;22.10;99.90;;;;;;2097272;28;20116;-70
2021/06/21 01:17:58;;;;;;;5.38;4.85;;;22.10;99.90;;;;;;2100284;28;20039;-70
2021/06/21 01:19:08;;;;;;;6.07;5.47;;;22.00;99.90;;;;;;2099885;28;20384;-70
2021/06/21 01:20:46;;;;;;;6.13;5.40;;;22.00;99.90;;;;;;2090079;28;20053;-70
2021/06/21 01:21:49;;;;;;;6.07;5.47;;;22.00;99.90;;;;;;2095683;28;20403;-70
2021/06/21 01:23:11;;;;;;;7.30;5.70;;;21.90;99.90;;;;;;2097274;28;20024;-70
2021/06/21 01:24:38;;;;;;;5.22;4.72;;;21.90;99.90;;;;;;2095203;28;20031;-70
2021/06/21 01:25:50;;;;;;;5.55;5.03;;;21.80;99.90;;;;;;2105713;28;20422;-70
2021/06/21 01:26:58;;;;;;;8.23;6.03;;;21.80;99.90;;;;;;2105611;28;20027;-69
2021/06/21 01:28:07;;;;;;;6.05;5.47;;;21.70;99.90;;;;;;2098008;28;20025;-70
2021/06/21 01:29:45;;;;;;;10.07;5.90;;;21.70;99.90;;;;;;2100350;28;20487;-69
2021/06/21 01:30:52;;;;;;;5.75;5.22;;;21.70;99.90;;;;;;2097128;28;20511;-70
2021/06/21 01:32:02;;;;;;;15.10;6.22;;;21.60;99.90;;;;;;2096375;28;20038;-70
2021/06/21 01:33:05;;;;;;;6.20;4.95;;;21.60;99.90;;;;;;2097539;28;20038;-70
2021/06/21 01:34:06;;;;;;;7.30;5.82;;;21.50;99.90;;;;;;2097079;28;20020;-69
2021/06/21 01:35:10;;;;;;;7.72;6.30;;;21.60;99.90;;;;;;2097286;28;20064;-70
2021/06/21 01:36:13;;;;;;;8.50;5.85;;;21.60;99.90;;;;;;2097006;28;20024;-70
2021/06/21 01:37:17;;;;;;;7.50;5.70;;;21.50;99.90;;;;;;2097064;28;20021;-70
2021/06/21 01:38:27;;;;;;;7.10;5.15;;;21.50;99.90;;;;;;2096996;28;20035;-70
2021/06/21 01:39:31;;;;;;;8.45;6.43;;;21.50;99.90;;;;;;2097249;28;20056;-69
2021/06/21 01:40:40;;;;;;;8.23;5.72;;;21.40;99.90;;;;;;2097165;28;20033;-70
2021/06/21 01:41:44;;;;;;;6.00;5.22;;;21.40;99.90;;;;;;2096620;28;20028;-70
2021/06/21 01:42:51;;;;;;;5.15;4.72;;;21.30;99.90;;;;;;2097483;28;20025;-70
2021/06/21 01:43:54;;;;;;;6.43;5.43;;;21.30;99.90;;;;;;2096938;28;20448;-70
2021/06/21 01:45:05;;;;;;;6.15;5.55;;;21.30;99.90;;;;;;2097219;28;20051;-70
2021/06/21 01:46:08;;;;;;;9.50;5.10;;;21.30;99.90;;;;;;2096878;28;20660;-70
2021/06/21 01:47:12;;;;;;;7.28;5.30;;;21.20;99.90;;;;;;2101902;28;20429;-70
2021/06/21 01:48:14;;;;;;;5.35;4.90;;;21.20;99.90;;;;;;2104565;28;20016;-70
2021/06/21 01:49:19;;;;;;;9.52;6.15;;;21.20;99.90;;;;;;2104960;28;20027;-70
2021/06/21 01:50:23;;;;;;;6.38;5.78;;;21.20;99.90;;;;;;2105505;28;20024;-70
2021/06/21 01:51:25;;;;;;;6.13;5.57;;;21.20;99.90;;;;;;2104935;28;20024;-70
2021/06/21 01:52:31;;;;;;;5.85;5.28;;;21.20;99.90;;;;;;2102201;28;20509;-70
2021/06/21 01:53:33;;;;;;;6.43;5.82;;;21.20;99.90;;;;;;2098473;28;20459;-70
2021/06/21 01:54:37;;;;;;;8.00;5.75;;;21.10;99.90;;;;;;2098162;28;20043;-70
2021/06/21 01:55:43;;;;;;;8.30;5.70;;;21.10;99.90;;;;;;2098556;28;20044;-70
2021/06/21 01:56:47;;;;;;;6.68;6.07;;;21.10;99.90;;;;;;2094998;28;20020;-70
2021/06/21 01:57:48;;;;;;;6.63;5.95;;;21.10;99.90;;;;;;2097117;28;20154;-70
2021/06/21 01:58:52;;;;;;;7.75;6.10;;;21.00;99.90;;;;;;2104364;28;20027;-70
2021/06/21 01:59:54;;;;;;;7.32;6.15;;;21.00;99.90;;;;;;2105180;28;20023;-70
2021/06/21 02:00:55;;;;;;;7.00;6.40;;;21.00;99.90;;;;;;2105889;28;20027;-69
2021/06/21 02:01:58;;;;;;;5.75;5.35;;;21.00;99.90;;;;;;2099648;28;20104;-69
2021/06/21 02:03:00;;;;;;;7.30;5.72;;;21.00;99.90;;;;;;2103880;28;20419;-70
2021/06/21 02:04:05;;;;;;;8.43;6.07;;;21.00;99.90;;;;;;2106382;28;20020;-70
2021/06/21 02:05:08;;;;;;;5.90;5.50;;;20.90;99.90;;;;;;2095400;28;20420;-70
2021/06/21 02:06:10;;;;;;;7.00;6.40;;;20.90;99.90;;;;;;2098528;28;20036;-70
2021/06/21 02:07:12;;;;;;;7.47;6.63;;;20.90;99.90;;;;;;2097581;28;20059;-70
2021/06/21 02:08:14;;;;;;;8.00;5.63;;;20.90;99.90;;;;;;2097938;28;20023;-69
2021/06/21 02:09:19;;;;;;;7.13;6.00;;;20.90;99.90;;;;;;2098199;28;20024;-70
2021/06/21 02:10:21;;;;;;;6.55;5.75;;;20.90;99.90;;;;;;2098022;28;20103;-69
2021/06/21 02:11:25;;;;;;;7.28;6.57;;;20.80;99.90;;;;;;2102050;28;20020;-70
2021/06/21 02:12:27;;;;;;;7.00;5.85;;;20.80;99.90;;;;;;2106417;28;20082;-70
2021/06/21 02:13:28;;;;;;;7.05;6.35;;;20.80;99.90;;;;;;2106575;28;20028;-70
2021/06/21 02:14:30;;;;;;;6.88;5.43;;;20.80;99.90;;;;;;2106596;28;20032;-69
2021/06/21 02:15:31;;;;;;;7.88;6.28;;;20.80;99.90;;;;;;2106505;28;20021;-69
2021/06/21 02:16:33;;;;;;;7.50;6.75;;;20.80;99.90;;;;;;2106761;28;20031;-69
2021/06/21 02:17:36;;;;;;;8.00;6.68;;;20.80;99.90;;;;;;2106148;28;20055;-69
2021/06/21 02:18:37;;;;;;;6.60;5.97;;;20.80;99.90;;;;;;2103717;28;20025;-69
2021/06/21 02:19:39;;;;;;;6.60;5.80;;;20.80;99.90;;;;;;2097920;28;20017;-70
2021/06/21 02:20:40;;;;;;;7.05;6.35;;;20.80;99.90;;;;;;2098010;28;20478;-69
2021/06/21 02:21:42;;;;;;;6.80;6.20;;;20.80;99.90;;;;;;2097524;28;20112;-69
2021/06/21 02:22:46;;;;;;;7.93;6.47;;;20.80;99.90;;;;;;2098191;28;20025;-69
2021/06/21 02:23:48;;;;;;;6.75;6.15;;;20.80;99.90;;;;;;2097401;28;20021;-69
2021/06/21 02:24:50;;;;;;;7.22;6.53;;;20.80;99.90;;;;;;2097373;28;20609;-69
2021/06/21 02:25:53;;;;;;;7.70;6.57;;;20.80;99.90;;;;;;2100822;28;20044;-69
2021/06/21 02:26:54;;;;;;;7.32;6.68;;;20.80;99.90;;;;;;2106459;28;20033;-69
2021/06/21 02:27:56;;;;;;;8.20;6.70;;;20.70;99.90;;;;;;2099165;28;20672;-69
2021/06/21 02:29:00;;;;;;;6.70;6.20;;;20.70;99.90;;;;;;2098307;28;20481;-69
2021/06/21 02:30:02;;;;;;;8.20;6.20;;;20.70;99.90;;;;;;2097946;28;20082;-69
2021/06/21 02:31:07;;;;;;;6.50;5.90;;;20.60;99.90;;;;;;2097983;28;20028;-69
2021/06/21 02:32:08;;;;;;;7.85;6.47;;;20.70;99.90;;;;;;2097388;28;20522;-69
2021/06/21 02:33:09;;;;;;;7.00;6.50;;;20.60;99.90;;;;;;2098320;28;20545;-69
2021/06/21 02:34:10;;;;;;;6.45;5.90;;;20.60;99.90;;;;;;2097948;28;20033;-69
2021/06/21 02:35:12;;;;;;;6.95;6.35;;;20.60;99.90;;;;;;2097726;28;20368;-69
2021/06/21 02:36:12;;;;;;;8.13;6.45;;;20.60;99.90;;;;;;2097977;28;20032;-69
2021/06/21 02:37:13;;;;;;;6.55;5.95;;;20.60;99.90;;;;;;2098236;28;20024;-69
2021/06/21 02:38:14;;;;;;;9.00;6.50;;;20.60;99.90;;;;;;2097581;28;20547;-69
2021/06/21 02:39:16;;;;;;;7.20;6.50;;;20.50;99.90;;;;;;2104321;28;20039;-69
2021/06/21 02:40:18;;;;;;;7.15;6.55;;;20.50;99.90;;;;;;2106267;28;20034;-69
2021/06/21 02:41:18;;;;;;;6.80;6.20;;;20.50;99.90;;;;;;2106603;28;20107;-69
2021/06/21 02:42:19;;;;;;;6.88;6.38;;;20.60;99.90;;;;;;2105674;28;20028;-69
2021/06/21 02:43:20;;;;;;;7.63;6.80;;;20.50;99.90;;;;;;2106153;28;20020;-69
2021/06/21 02:44:20;;;;;;;7.28;6.57;;;20.50;99.90;;;;;;2106167;28;20389;-68
2021/06/21 02:45:21;;;;;;;6.90;6.30;;;20.50;99.90;;;;;;2106494;28;20055;-69
2021/06/21 02:46:21;;;;;;;7.28;6.68;;;20.50;99.90;;;;;;2106270;28;20020;-69
2021/06/21 02:47:22;;;;;;;7.32;6.72;;;20.50;99.90;;;;;;2106404;28;20063;-69
2021/06/21 02:48:23;;;;;;;9.38;6.63;;;20.50;99.90;;;;;;2106305;28;20360;-69
2021/06/21 02:49:24;;;;;;;7.18;6.55;;;20.50;99.90;;;;;;2106412;28;20479;-69
2021/06/21 02:50:25;;;;;;;6.78;6.18;;;20.50;99.90;;;;;;2105397;28;20016;-69
2021/06/21 02:51:59;;;;;;;7.13;6.43;;;20.50;99.90;;;;;;2105380;28;20114;-69
2021/06/21 02:53:04;;;;;;;7.30;6.63;;;20.50;99.90;;;;;;2078291;28;20057;-69
2021/06/21 02:54:23;;;;;;;7.25;5.57;;;20.40;99.90;;;;;;2080721;28;20100;-69
2021/06/21 02:55:28;;;;;;;7.47;6.78;;;20.40;99.90;;;;;;2095678;28;20363;-69
2021/06/21 02:56:40;;;;;;;7.20;6.45;;;20.40;99.90;;;;;;2097702;28;20025;-69
2021/06/21 02:58:15;;;;;;;6.22;5.70;;;20.40;99.90;;;;;;2098023;28;20012;-69
2021/06/21 02:59:20;;;;;;;7.68;6.32;;;20.30;99.90;;;;;;2096609;28;20017;-69
2021/06/21 03:00:21;;;;;;;8.10;6.88;;;20.30;99.90;;;;;;2103279;28;20115;-69
2021/06/21 03:01:24;;;;;;;7.05;6.47;;;20.30;99.90;;;;;;2097567;28;20032;-69
2021/06/21 03:02:25;;;;;;;6.82;6.13;;;20.30;99.90;;;;;;2096534;28;20371;-69
2021/06/21 03:03:31;;;;;;;7.28;6.57;;;20.30;99.90;;;;;;2096500;28;20044;-69
2021/06/21 03:04:32;;;;;;;7.05;6.32;;;20.20;99.90;;;;;;2096995;28;20095;-69
2021/06/21 03:05:33;;;;;;;7.15;6.43;;;20.30;99.90;;;;;;2096660;28;20402;-69
2021/06/21 03:06:35;;;;;;;6.63;6.03;;;20.20;99.90;;;;;;2096492;28;20075;-69
2021/06/21 03:07:37;;;;;;;6.80;6.20;;;20.20;99.90;;;;;;2096706;28;20027;-69
2021/06/21 03:08:39;;;;;;;9.32;6.38;;;20.20;99.90;;;;;;2102923;28;20016;-70
2021/06/21 03:09:43;;;;;;;7.13;6.45;;;20.20;99.90;;;;;;2095663;28;20483;-70
2021/06/21 03:10:44;;;;;;;6.15;5.65;;;20.20;99.90;;;;;;2095663;28;20115;-69
2021/06/21 03:11:49;;;;;;;6.80;6.10;;;20.20;99.90;;;;;;2095850;28;20025;-69
2021/06/21 03:12:50;;;;;;;7.75;6.82;;;20.20;99.90;;;;;;2096357;28;20069;-69
2021/06/21 03:13:54;;;;;;;6.68;6.03;;;20.20;99.90;;;;;;2096135;28;20464;-69
2021/06/21 03:14:54;;;;;;;6.53;5.95;;;20.20;99.90;;;;;;2096270;28;20028;-69
2021/06/21 03:15:58;;;;;;;6.53;6.00;;;20.20;99.90;;;;;;2096499;28;20041;-70
2021/06/21 03:16:59;;;;;;;6.25;5.78;;;20.20;99.90;;;;;;2096529;28;20094;-69
2021/06/21 03:18:01;;;;;;;6.32;5.80;;;20.20;99.90;;;;;;2096466;28;20539;-69
2021/06/21 03:19:03;;;;;;;5.70;5.20;;;20.20;99.90;;;;;;2096431;28;20028;-70
2021/06/21 03:20:05;;;;;;;6.65;6.03;;;20.20;99.90;;;;;;2096423;28;20620;-70
2021/06/21 03:21:06;;;;;;;4.07;3.70;;;20.20;99.90;;;;;;2095395;28;20145;-70
2021/06/21 03:22:07;;;;;;;5.55;5.15;;;20.20;99.90;;;;;;2099235;28;20024;-70
2021/06/21 03:23:08;;;;;;;5.53;5.10;;;20.20;99.90;;;;;;2097826;28;20052;-70
2021/06/21 03:24:13;;;;;;;5.18;4.78;;;20.20;99.90;;;;;;2102086;28;20016;-70
2021/06/21 03:25:14;;;;;;;6.75;5.25;;;20.20;99.90;;;;;;2096569;28;20020;-69
2021/06/21 03:26:15;;;;;;;5.07;4.68;;;20.10;99.90;;;;;;2096412;28;20551;-70
2021/06/21 03:27:15;;;;;;;4.70;4.30;;;20.10;99.90;;;;;;2095766;28;20678;-70
2021/06/21 03:28:16;;;;;;;3.78;3.42;;;20.10;99.90;;;;;;2095556;28;20089;-70
2021/06/21 03:29:19;;;;;;;4.50;4.20;;;20.00;99.90;;;;;;2096324;28;20029;-70
2021/06/21 03:30:21;;;;;;;4.30;3.90;;;20.10;99.90;;;;;;2095289;28;20050;-70
2021/06/21 03:31:22;;;;;;;5.30;3.97;;;20.10;99.90;;;;;;2097841;28;20078;-69
2021/06/21 03:32:45;;;;;;;4.43;4.03;;;20.00;99.90;;;;;;2102216;28;20032;-70
2021/06/21 03:33:45;;;;;;;5.65;3.95;;;20.10;99.90;;;;;;2103108;28;20020;-69
2021/06/21 03:34:46;;;;;;;4.18;3.80;;;20.00;99.90;;;;;;2096031;28;20064;-69
2021/06/21 03:35:48;;;;;;;5.40;4.15;;;20.00;99.90;;;;;;2101684;28;20545;-69
2021/06/21 03:36:49;;;;;;;4.70;3.83;;;20.00;99.90;;;;;;2104450;28;20759;-69
2021/06/21 03:37:50;;;;;;;4.00;3.70;;;20.00;99.90;;;;;;2104781;28;20024;-69
2021/06/21 03:38:50;;;;;;;4.07;3.67;;;20.00;99.90;;;;;;2104461;28;20048;-69
2021/06/21 03:39:51;;;;;;;3.88;3.50;;;19.90;99.90;;;;;;2104666;28;20418;-69
2021/06/21 03:40:56;;;;;;;4.45;4.00;;;19.90;99.90;;;;;;2104588;28;20024;-69
2021/06/21 03:41:56;;;;;;;5.18;3.85;;;19.90;99.90;;;;;;2104047;28;20388;-69
2021/06/21 03:42:57;;;;;;;4.38;3.97;;;19.90;99.90;;;;;;2104572;28;20047;-69
2021/06/21 03:43:57;;;;;;;4.30;3.97;;;19.80;99.90;;;;;;2104808;28;20024;-69
2021/06/21 03:44:58;;;;;;;5.93;4.20;;;19.90;99.90;;;;;;2104401;28;20024;-69
2021/06/21 03:46:07;;;;;;;3.92;3.60;;;19.80;99.90;;;;;;2104922;28;20019;-69
2021/06/21 03:47:10;;;;;;;4.30;4.00;;;19.90;99.90;;;;;;2104743;28;20115;-69
2021/06/21 03:48:11;;;;;;;4.85;4.45;;;19.80;99.90;;;;;;2104760;28;20024;-69
2021/06/21 03:49:12;;;;;;;5.32;4.93;;;19.80;99.90;;;;;;2101909;28;20097;-69
2021/06/21 03:50:13;;;;;;;4.75;4.35;;;19.80;99.90;;;;;;2096208;28;20063;-69
2021/06/21 03:51:13;;;;;;;6.07;4.63;;;19.80;99.90;;;;;;2096094;28;20103;-69
2021/06/21 03:52:15;;;;;;;4.07;3.10;;;19.80;99.90;;;;;;2095748;28;20035;-69
2021/06/21 03:53:18;;;;;;;5.30;4.90;;;19.80;99.90;;;;;;2096216;28;20582;-69
2021/06/21 03:54:18;;;;;;;5.43;4.65;;;19.80;99.90;;;;;;2096418;28;20032;-69
2021/06/21 03:55:19;;;;;;;4.50;4.10;;;19.80;99.90;;;;;;2096118;28;20618;-69
2021/06/21 03:56:20;;;;;;;4.88;4.53;;;19.80;99.90;;;;;;2096343;28;20021;-69
2021/06/21 03:57:20;;;;;;;4.50;4.15;;;19.80;99.90;;;;;;2096134;28;20043;-69
2021/06/21 03:58:21;;;;;;;4.55;4.20;;;19.80;99.90;;;;;;2095914;28;20491;-69
2021/06/21 03:59:21;;;;;;;4.97;4.57;;;19.80;99.90;;;;;;2096382;28;20033;-69
2021/06/21 04:00:25;;;;;;;5.18;4.63;;;19.80;99.90;;;;;;2096337;28;20034;-70
2021/06/21 04:01:25;;;;;;;4.55;4.18;;;19.80;99.90;;;;;;2095854;28;20021;-69
2021/06/21 04:02:26;;;;;;;6.28;4.60;;;19.70;99.90;;;;;;2095989;28;20013;-69
2021/06/21 04:03:26;;;;;;;4.53;4.22;;;19.80;99.90;;;;;;2095862;28;20028;-69
2021/06/21 04:04:28;;;;;;;5.10;4.65;;;19.70;99.90;;;;;;2096487;28;20040;-70
2021/06/21 04:05:29;;;;;;;4.68;4.28;;;19.70;99.90;;;;;;2104526;28;20020;-69
2021/06/21 04:06:29;;;;;;;4.03;3.72;;;19.70;99.90;;;;;;2104686;28;20077;-70
2021/06/21 04:07:30;;;;;;;4.30;3.90;;;19.70;99.90;;;;;;2104438;28;20020;-70
2021/06/21 04:08:30;;;;;;;4.85;4.32;;;19.70;99.90;;;;;;2104443;28;20609;-69
2021/06/21 04:09:31;;;;;;;4.88;4.53;;;19.70;99.90;;;;;;2104245;28;20074;-69
2021/06/21 04:10:32;;;;;;;4.50;4.20;;;19.80;99.90;;;;;;2104519;28;20027;-70
2021/06/21 04:11:33;;;;;;;4.50;4.20;;;19.70;99.90;;;;;;2103372;28;20024;-69
2021/06/21 04:12:35;;;;;;;4.18;3.88;;;19.70;99.90;;;;;;2105569;28;20020;-69
2021/06/21 04:13:35;;;;;;;4.88;4.57;;;19.70;99.90;;;;;;2106211;28;20024;-69
2021/06/21 04:14:36;;;;;;;5.15;4.75;;;19.70;99.90;;;;;;2106089;28;20032;-69
2021/06/21 04:15:37;;;;;;;4.80;4.50;;;19.70;99.90;;;;;;2106370;28;20028;-69
2021/06/21 04:16:37;;;;;;;5.10;4.65;;;19.70;99.90;;;;;;2105454;28;20020;-69
2021/06/21 04:17:39;;;;;;;4.38;4.07;;;19.70;99.90;;;;;;2102155;28;20074;-69
2021/06/21 04:18:39;;;;;;;5.32;4.82;;;19.70;99.90;;;;;;2097771;28;20165;-69
2021/06/21 04:19:40;;;;;;;4.63;4.30;;;19.70;99.90;;;;;;2097477;28;20102;-69
2021/06/21 04:20:43;;;;;;;5.13;4.70;;;19.70;99.90;;;;;;2097704;28;20073;-69
2021/06/21 04:21:43;;;;;;;5.13;4.82;;;19.70;99.90;;;;;;2097398;28;20022;-69
2021/06/21 04:22:44;;;;;;;5.72;5.32;;;19.70;99.90;;;;;;2097712;28;20021;-69
2021/06/21 04:23:45;;;;;;;5.47;5.07;;;19.70;99.90;;;;;;2098123;28;20024;-69
2021/06/21 04:24:45;;;;;;;5.72;5.22;;;19.70;99.90;;;;;;2097656;28;20021;-69
2021/06/21 04:25:46;;;;;;;4.75;4.35;;;19.70;99.90;;;;;;2097745;28;20156;-69
2021/06/21 04:26:46;;;;;;;5.60;5.22;;;19.70;99.90;;;;;;2097859;28;21001;-69
2021/06/21 04:27:47;;;;;;;6.15;5.65;;;19.70;99.90;;;;;;2097728;28;20474;-69
2021/06/21 04:28:48;;;;;;;6.10;5.60;;;19.70;99.90;;;;;;2097780;28;20523;-69
2021/06/21 04:29:49;;;;;;;5.35;4.82;;;19.70;99.90;;;;;;2100311;28;20031;-69
2021/06/21 04:30:50;;;;;;;6.55;6.05;;;19.70;99.90;;;;;;2103515;28;20056;-69
2021/06/21 04:31:50;;;;;;;6.28;5.78;;;19.70;99.90;;;;;;2101376;28;20032;-69
2021/06/21 04:32:52;;;;;;;6.13;5.60;;;19.70;99.90;;;;;;2100462;28;20032;-69
2021/06/21 04:33:53;;;;;;;7.10;6.50;;;19.70;99.90;;;;;;2099244;28;20030;-69
2021/06/21 04:34:54;;;;;;;6.32;5.82;;;19.70;99.90;;;;;;2099314;28;20047;-69
2021/06/21 04:35:54;;;;;;;6.00;5.60;;;19.70;99.90;;;;;;2097467;28;20051;-69
2021/06/21 04:36:55;;;;;;;7.18;6.30;;;19.70;99.90;;;;;;2097274;28;20032;-69
2021/06/21 04:37:56;;;;;;;7.10;6.45;;;19.70;99.90;;;;;;2089363;28;20029;-69
2021/06/21 04:38:57;;;;;;;7.13;6.53;;;19.70;99.90;;;;;;2091146;28;20033;-69
2021/06/21 04:39:57;;;;;;;6.70;6.20;;;19.70;99.90;;;;;;2093261;28;20025;-69
2021/06/21 04:40:58;;;;;;;7.13;6.63;;;19.80;99.90;;;;;;2090942;28;20021;-69
2021/06/21 04:41:58;;;;;;;5.32;4.90;;;19.70;99.90;;;;;;2090670;28;20017;-69
2021/06/21 04:42:59;;;;;;;6.38;5.88;;;19.70;99.90;;;;;;2089233;28;20120;-69
2021/06/21 04:44:00;;;;;;;8.35;7.43;;;19.80;99.90;;;;;;2092284;28;20372;-69
2021/06/21 04:45:00;;;;;;;5.10;4.70;;;19.80;99.90;;;;;;2090003;28;20031;-69
2021/06/21 04:46:03;;;;;;;6.80;6.20;;;19.80;99.90;;;;;;2091777;28;20103;-69
2021/06/21 04:47:04;;;;;;;7.22;6.72;;;19.80;99.90;;;;;;2089040;28;20032;-69
2021/06/21 04:48:05;;;;;;;7.53;6.93;;;19.80;99.90;;;;;;2092735;28;20043;-69
2021/06/21 04:49:11;;;;;;;8.45;7.70;;;19.80;99.90;;;;;;2093380;28;20529;-68
2021/06/21 04:50:14;;;;;;;8.23;7.63;;;19.80;99.90;;;;;;2092421;28;20029;-69
2021/06/21 04:51:16;;;;;;;8.07;7.47;;;19.80;99.90;;;;;;2089989;28;20387;-69
2021/06/21 04:52:18;;;;;;;7.78;7.18;;;19.80;99.90;;;;;;2091042;28;20120;-69
2021/06/21 04:53:19;;;;;;;9.80;8.95;;;19.80;99.90;;;;;;2089473;28;20019;-69
2021/06/21 04:54:19;;;;;;;11.05;10.07;;;19.80;99.90;;;;;;2090826;28;20028;-69
2021/06/21 04:55:23;;;;;;;12.77;11.73;;;19.80;99.90;;;;;;2092991;28;20048;-69
2021/06/21 04:56:24;;;;;;;13.02;11.95;;;19.80;99.90;;;;;;2094332;28;20029;-69
2021/06/21 04:57:24;;;;;;;11.48;10.57;;;19.80;99.90;;;;;;2089102;28;20108;-69
2021/06/21 04:58:26;;;;;;;11.13;10.32;;;19.80;99.90;;;;;;2091671;28;20707;-69
2021/06/21 04:59:26;;;;;;;11.70;10.80;;;19.80;99.90;;;;;;2088284;28;20025;-69
2021/06/21 05:00:27;;;;;;;11.63;10.82;;;19.80;99.90;;;;;;2090886;28;20035;-69
2021/06/21 05:01:27;;;;;;;13.02;11.82;;;19.80;99.90;;;;;;2089979;28;20017;-69
2021/06/21 05:02:28;;;;;;;12.55;11.55;;;19.80;99.90;;;;;;2102827;28;20017;-69
2021/06/21 05:03:29;;;;;;;12.90;11.95;;;19.80;99.90;;;;;;2100020;28;20452;-69
2021/06/21 05:04:29;;;;;;;12.80;11.70;;;19.80;99.90;;;;;;2101363;28;20598;-68
2021/06/21 05:05:30;;;;;;;12.90;11.90;;;19.80;99.90;;;;;;2098834;28;20463;-69
2021/06/21 05:06:37;;;;;;;12.35;11.20;;;19.70;99.90;;;;;;2102373;28;20028;-69
2021/06/21 05:07:40;;;;;;;9.52;8.63;;;19.70;99.90;;;;;;2101779;28;20017;-68
2021/06/21 05:08:41;;;;;;;12.00;11.05;;;19.70;99.90;;;;;;2097654;28;20024;-68
2021/06/21 05:09:42;;;;;;;9.85;9.05;;;19.70;99.90;;;;;;2100241;28;20027;-68
2021/06/21 05:10:43;;;;;;;7.45;6.88;;;19.70;99.90;;;;;;2099704;28;20013;-68
2021/06/21 05:11:43;;;;;;;8.95;8.25;;;19.80;99.90;;;;;;2098767;28;20027;-68
2021/06/21 05:12:44;;;;;;;10.60;9.70;;;19.80;99.90;;;;;;2098840;28;20020;-68
2021/06/21 05:13:45;;;;;;;13.35;12.15;;;19.70;99.90;;;;;;2098912;28;20150;-68
2021/06/21 05:14:46;;;;;;;14.40;13.32;;;19.80;99.90;;;;;;2101599;28;20029;-69
2021/06/21 05:15:46;;;;;;;13.15;12.05;;;19.80;99.90;;;;;;2101703;28;20037;-69
2021/06/21 05:16:47;;;;;;;12.05;11.15;;;19.80;99.90;;;;;;2096962;28;20067;-69
2021/06/21 05:17:48;;;;;;;12.55;11.52;;;19.90;99.90;;;;;;2095643;28;20028;-69
2021/06/21 05:18:48;;;;;;;14.27;12.35;;;19.80;99.90;;;;;;2093597;28;20469;-69
2021/06/21 05:19:49;;;;;;;12.45;11.35;;;19.80;99.90;;;;;;2100156;28;20083;-69
2021/06/21 05:20:49;;;;;;;11.90;11.00;;;19.80;99.90;;;;;;2098812;28;20028;-69
2021/06/21 05:21:50;;;;;;;13.40;12.43;;;19.80;99.90;;;;;;2098500;28;20016;-69
2021/06/21 05:22:52;;;;;;;13.20;12.10;;;19.80;99.90;;;;;;2096127;28;20113;-69
2021/06/21 05:23:52;;;;;;;14.07;12.98;;;19.80;99.90;;;;;;2100285;28;20449;-69
2021/06/21 05:24:54;;;;;;;11.75;10.77;;;19.80;99.90;;;;;;2099469;28;20385;-68
2021/06/21 05:25:55;;;;;;;11.75;10.75;;;19.80;99.90;;;;;;2098410;28;20086;-69